Big Sandy, Tennessee
Current Conditions -  °F | °C
As of 3:55 AM on Saturday 29 Nov 2014 (Local Time) from KPHT Reporting Station
Overcast Overcast  
Wind Chill: 38°   Ceiling: 3100
Heat Index: 45°   Visibility: 10mi
Dew Point: 28°   Wind: 14mph
Humidity: 53%   Direction: 190°S
Pressure: 30.04"   Gusts: NA
Location:  36.23°N, 88.09°W
Report Text: KPHT 290955Z AUTO 19012KT 10SM OVC031 07/M02 A3004 RMK
Loading
Personal Weather Stations






























Interactive Weather Map New forecast layout! Learn more

10-Day Weather Forecast

Advertisements
Track Severe Weather on mobile